LPFL/FLW METAR and TAF weather

Enter ICAO airport designator
Station Type Date Time Source
LPFL METAR 2020/04/04 12:00 UTC NOAA

LPFL 041200Z 34008KT 300V030 9999 SCT018 FEW019TCU 17/12 Q0997


Station Type Date Time Source
LPFL Decoded METAR 2020/04/04 12:00 UTC NOAA

Flores Acores , Portugal (LPFL) 39-27N 031-08W 29M
Apr 04, 2020 - 08:00 AM EDT / 2020.04.04 1200 UTC
Wind: from the NNW (340 degrees) at 9 MPH (8 KT) (direction variable):0
Visibility: greater than 7 mile(s):0
Sky conditions: partly cloudy
Weather: Towering cumulus clouds observed
Temperature: 62 F (17 C)
Dew Point: 53 F (12 C)
Relative Humidity: 72%
Pressure (altimeter): 29.44 in. Hg (0997 hPa)
ob: LPFL 041200Z 34008KT 300V030 9999 SCT018 FEW019TCU 17/12 Q0997
cycle: 12

Station Type Date Time Source
LPFL TAF UTC NOAA

Error!

Example: see airport list